SIA608 WSSS-RKSI
Flight info
| Callsign | SIA608 |
|---|---|
| Flight time | 5h 46m |
| Altitude | 36000 |
| Route | TOMAN3A TOMAN L625 AKMON/K0917F360 L625 ANOKI/N0494F360 L625 ABVAR M646 HCN W4 APU B591 DUBAN B576 OLMEN OLMEN2E |
| Aircraft | B77W/H-SADE1E2E3GHIJ1J3J5M1P2RWXY/LB1D1 |
Departure
| Time | 2026-05-07 06:22 |
|---|---|
| Airport | Singapore Changi Airport (WSSS) |
Arrival
| Time | 2026-05-07 12:09 |
|---|---|
| Airport | Incheon International Airport (RKSI) |
| Time | Latitude | Longitude | Altitude | Speed | Heading |
|---|---|---|---|---|---|
| 2026-05-07 05:27 | 1.34978 | 103.98805 | 55 ft | 0 kts | 294° |
| 2026-05-07 06:07 | 1.34977 | 103.98807 | 55 ft | 1 kts | 293° |
| 2026-05-07 06:07 | 1.34973 | 103.98821 | 55 ft | 2 kts | 280° |
| 2026-05-07 06:07 | 1.34971 | 103.98836 | 55 ft | 2 kts | 268° |
| 2026-05-07 06:08 | 1.34973 | 103.98851 | 55 ft | 2 kts | 257° |
| 2026-05-07 06:08 | 1.34977 | 103.98865 | 55 ft | 2 kts | 246° |
| 2026-05-07 06:08 | 1.34984 | 103.98878 | 54 ft | 2 kts | 235° |
| 2026-05-07 06:08 | 1.34993 | 103.98890 | 54 ft | 2 kts | 224° |
| 2026-05-07 06:09 | 1.35005 | 103.98900 | 54 ft | 2 kts | 213° |
| 2026-05-07 06:09 | 1.35018 | 103.98907 | 54 ft | 1 kts | 202° |
| 2026-05-07 06:09 | 1.35022 | 103.98908 | 54 ft | 0 kts | 201° |
| 2026-05-07 06:11 | 1.35017 | 103.98907 | 54 ft | 2 kts | 202° |
| 2026-05-07 06:12 | 1.34992 | 103.98895 | 54 ft | 5 kts | 209° |
| 2026-05-07 06:12 | 1.34941 | 103.98869 | 54 ft | 10 kts | 204° |
| 2026-05-07 06:12 | 1.34862 | 103.98858 | 53 ft | 13 kts | 150° |
| 2026-05-07 06:12 | 1.34803 | 103.98954 | 49 ft | 18 kts | 114° |
| 2026-05-07 06:13 | 1.34754 | 103.99052 | 46 ft | 13 kts | 131° |
| 2026-05-07 06:13 | 1.34665 | 103.99052 | 42 ft | 14 kts | 203° |
| 2026-05-07 06:13 | 1.34577 | 103.99018 | 42 ft | 13 kts | 202° |
| 2026-05-07 06:13 | 1.34486 | 103.98980 | 40 ft | 15 kts | 204° |
| 2026-05-07 06:14 | 1.34380 | 103.98935 | 38 ft | 17 kts | 203° |
| 2026-05-07 06:14 | 1.34261 | 103.98885 | 36 ft | 19 kts | 202° |
| 2026-05-07 06:14 | 1.34133 | 103.98832 | 34 ft | 20 kts | 202° |
| 2026-05-07 06:14 | 1.34004 | 103.98776 | 35 ft | 19 kts | 203° |
| 2026-05-07 06:15 | 1.33876 | 103.98723 | 35 ft | 20 kts | 203° |
| 2026-05-07 06:15 | 1.33741 | 103.98666 | 34 ft | 20 kts | 203° |
| 2026-05-07 06:15 | 1.33608 | 103.98610 | 34 ft | 20 kts | 202° |
| 2026-05-07 06:15 | 1.33477 | 103.98552 | 35 ft | 20 kts | 204° |
| 2026-05-07 06:16 | 1.33350 | 103.98496 | 37 ft | 19 kts | 204° |
| 2026-05-07 06:16 | 1.33230 | 103.98444 | 39 ft | 18 kts | 204° |
| 2026-05-07 06:16 | 1.33109 | 103.98392 | 39 ft | 18 kts | 202° |
| 2026-05-07 06:16 | 1.32990 | 103.98344 | 39 ft | 16 kts | 202° |
| 2026-05-07 06:17 | 1.32916 | 103.98315 | 38 ft | 9 kts | 201° |
| 2026-05-07 06:17 | 1.32861 | 103.98316 | 37 ft | 6 kts | 151° |
| 2026-05-07 06:17 | 1.32854 | 103.98322 | 37 ft | 0 kts | 131° |
| 2026-05-07 06:19 | 1.32850 | 103.98326 | 37 ft | 2 kts | 130° |
| 2026-05-07 06:19 | 1.32839 | 103.98347 | 37 ft | 4 kts | 113° |
| 2026-05-07 06:19 | 1.32834 | 103.98383 | 37 ft | 6 kts | 84° |
| 2026-05-07 06:19 | 1.32849 | 103.98431 | 37 ft | 8 kts | 69° |
| 2026-05-07 06:20 | 1.32875 | 103.98489 | 37 ft | 9 kts | 53° |
| 2026-05-07 06:20 | 1.32937 | 103.98525 | 37 ft | 10 kts | 18° |
| 2026-05-07 06:20 | 1.32961 | 103.98534 | 37 ft | 0 kts | 22° |
| 2026-05-07 06:21 | 1.32965 | 103.98536 | 37 ft | 5 kts | 22° |
| 2026-05-07 06:21 | 1.33153 | 103.98616 | 35 ft | 64 kts | 23° |
| 2026-05-07 06:21 | 1.33800 | 103.98889 | 34 ft | 133 kts | 23° |
| 2026-05-07 06:22 | 1.34855 | 103.99332 | 108 ft | 185 kts | 23° |
| 2026-05-07 06:22 | 1.37272 | 104.00346 | 1530 ft | 191 kts | 25° |
| 2026-05-07 06:22 | 1.38546 | 104.00892 | 2022 ft | 207 kts | 25° |
| 2026-05-07 06:23 | 1.39914 | 104.01472 | 2558 ft | 222 kts | 25° |
| 2026-05-07 06:23 | 1.41381 | 104.02093 | 3147 ft | 237 kts | 24° |
| 2026-05-07 06:23 | 1.42951 | 104.02756 | 3765 ft | 252 kts | 25° |
| 2026-05-07 06:23 | 1.44627 | 104.03464 | 4422 ft | 267 kts | 24° |
| 2026-05-07 06:24 | 1.46238 | 104.04377 | 5214 ft | 272 kts | 44° |
| 2026-05-07 06:24 | 1.47367 | 104.05891 | 6082 ft | 275 kts | 68° |
| 2026-05-07 06:24 | 1.47741 | 104.07725 | 6968 ft | 276 kts | 92° |
| 2026-05-07 06:24 | 1.47322 | 104.09591 | 7785 ft | 281 kts | 111° |
| 2026-05-07 06:25 | 1.46520 | 104.11362 | 8624 ft | 285 kts | 114° |
| 2026-05-07 06:25 | 1.45669 | 104.13146 | 9500 ft | 287 kts | 114° |
| 2026-05-07 06:25 | 1.44813 | 104.14963 | 10298 ft | 292 kts | 113° |
| 2026-05-07 06:25 | 1.43940 | 104.16835 | 10827 ft | 308 kts | 113° |
| 2026-05-07 06:26 | 1.43013 | 104.18830 | 11334 ft | 324 kts | 113° |
| 2026-05-07 06:26 | 1.42045 | 104.20925 | 11855 ft | 340 kts | 113° |
| 2026-05-07 06:26 | 1.41040 | 104.23101 | 12376 ft | 355 kts | 113° |
| 2026-05-07 06:26 | 1.39972 | 104.25411 | 12928 ft | 370 kts | 113° |
| 2026-05-07 06:27 | 1.38881 | 104.27773 | 13393 ft | 385 kts | 112° |
| 2026-05-07 06:27 | 1.37740 | 104.30240 | 13838 ft | 399 kts | 113° |
| 2026-05-07 06:27 | 1.36562 | 104.32787 | 14570 ft | 404 kts | 113° |
| 2026-05-07 06:27 | 1.35384 | 104.35331 | 15409 ft | 405 kts | 112° |
| 2026-05-07 06:28 | 1.34230 | 104.37893 | 16176 ft | 408 kts | 109° |
| 2026-05-07 06:28 | 1.33422 | 104.40582 | 16791 ft | 411 kts | 99° |
| 2026-05-07 06:28 | 1.33086 | 104.43446 | 17417 ft | 414 kts | 89° |
| 2026-05-07 06:28 | 1.33116 | 104.46333 | 18101 ft | 417 kts | 87° |
| 2026-05-07 06:29 | 1.33190 | 104.49202 | 18793 ft | 420 kts | 87° |
| 2026-05-07 06:29 | 1.33266 | 104.52140 | 19434 ft | 424 kts | 87° |
| 2026-05-07 06:29 | 1.33341 | 104.55110 | 20017 ft | 429 kts | 88° |
| 2026-05-07 06:29 | 1.33415 | 104.58081 | 20598 ft | 433 kts | 88° |
| 2026-05-07 06:30 | 1.33490 | 104.61103 | 21171 ft | 437 kts | 88° |
| 2026-05-07 06:30 | 1.33564 | 104.64145 | 21740 ft | 441 kts | 88° |
| 2026-05-07 06:30 | 1.33639 | 104.67248 | 22383 ft | 443 kts | 88° |
| 2026-05-07 06:30 | 1.33713 | 104.70311 | 22943 ft | 446 kts | 88° |
| 2026-05-07 06:31 | 1.33788 | 104.73440 | 23482 ft | 450 kts | 88° |
| 2026-05-07 06:31 | 1.33863 | 104.76550 | 24005 ft | 454 kts | 88° |
| 2026-05-07 06:31 | 1.33939 | 104.79722 | 24476 ft | 459 kts | 88° |
| 2026-05-07 06:31 | 1.34016 | 104.82913 | 24961 ft | 464 kts | 88° |
| 2026-05-07 06:32 | 1.34093 | 104.86159 | 25509 ft | 467 kts | 88° |
| 2026-05-07 06:32 | 1.34171 | 104.89387 | 26036 ft | 470 kts | 88° |
| 2026-05-07 06:32 | 1.34250 | 104.92682 | 26551 ft | 473 kts | 88° |
| 2026-05-07 06:32 | 1.34329 | 104.95984 | 26790 ft | 478 kts | 88° |
| 2026-05-07 06:33 | 1.34409 | 104.99312 | 26805 ft | 479 kts | 88° |
| 2026-05-07 06:33 | 1.34489 | 105.02621 | 26806 ft | 478 kts | 88° |
| 2026-05-07 06:33 | 1.34568 | 105.05930 | 26806 ft | 477 kts | 88° |
| 2026-05-07 06:33 | 1.34648 | 105.09280 | 26806 ft | 478 kts | 88° |
| 2026-05-07 06:34 | 1.34728 | 105.12587 | 26805 ft | 478 kts | 88° |
| 2026-05-07 06:34 | 1.34807 | 105.15896 | 26805 ft | 478 kts | 88° |
| 2026-05-07 06:34 | 1.34886 | 105.19189 | 26805 ft | 477 kts | 88° |
| 2026-05-07 06:34 | 1.34965 | 105.22507 | 26805 ft | 476 kts | 88° |
| 2026-05-07 06:35 | 1.35044 | 105.25824 | 26805 ft | 476 kts | 88° |
| 2026-05-07 06:35 | 1.35123 | 105.29109 | 26805 ft | 476 kts | 88° |
| 2026-05-07 06:35 | 1.35200 | 105.32333 | 26804 ft | 476 kts | 88° |
| 2026-05-07 06:35 | 1.35281 | 105.35719 | 26805 ft | 476 kts | 88° |
| 2026-05-07 06:36 | 1.35360 | 105.39018 | 26805 ft | 477 kts | 88° |
| 2026-05-07 06:36 | 1.35439 | 105.42344 | 26804 ft | 476 kts | 88° |
| 2026-05-07 06:36 | 1.35518 | 105.45655 | 26804 ft | 476 kts | 88° |
| 2026-05-07 06:36 | 1.35597 | 105.48981 | 26802 ft | 476 kts | 88° |
| 2026-05-07 06:37 | 1.35676 | 105.52279 | 26804 ft | 477 kts | 88° |
| 2026-05-07 06:37 | 1.35754 | 105.55588 | 26800 ft | 475 kts | 88° |
| 2026-05-07 06:37 | 1.35833 | 105.58881 | 26795 ft | 475 kts | 88° |
| 2026-05-07 06:37 | 1.35912 | 105.62199 | 26789 ft | 475 kts | 88° |
| 2026-05-07 06:38 | 1.35992 | 105.65498 | 26782 ft | 474 kts | 88° |
| 2026-05-07 06:38 | 1.36332 | 105.68759 | 26785 ft | 475 kts | 80° |
| 2026-05-07 06:38 | 1.37147 | 105.71964 | 26783 ft | 475 kts | 72° |
| 2026-05-07 06:38 | 1.38410 | 105.74999 | 26783 ft | 475 kts | 64° |
| 2026-05-07 06:39 | 1.40122 | 105.77855 | 26784 ft | 476 kts | 56° |
| 2026-05-07 06:39 | 1.42206 | 105.80404 | 26785 ft | 478 kts | 47° |
| 2026-05-07 06:39 | 1.44684 | 105.82663 | 26785 ft | 480 kts | 39° |
| 2026-05-07 06:39 | 1.47454 | 105.84528 | 26785 ft | 482 kts | 31° |
| 2026-05-07 06:40 | 1.50398 | 105.86105 | 26790 ft | 483 kts | 29° |
| 2026-05-07 06:40 | 1.53408 | 105.87664 | 26789 ft | 483 kts | 29° |
| 2026-05-07 06:40 | 1.56410 | 105.89216 | 26791 ft | 483 kts | 29° |
| 2026-05-07 06:40 | 1.59411 | 105.90768 | 26796 ft | 483 kts | 29° |
| 2026-05-07 06:41 | 1.62397 | 105.92313 | 26798 ft | 483 kts | 29° |
| 2026-05-07 06:41 | 1.65367 | 105.93849 | 26801 ft | 482 kts | 29° |
| 2026-05-07 06:41 | 1.68340 | 105.95388 | 26802 ft | 482 kts | 30° |
| 2026-05-07 06:41 | 1.71360 | 105.96950 | 26803 ft | 483 kts | 30° |
| 2026-05-07 06:42 | 1.74325 | 105.98486 | 26806 ft | 483 kts | 30° |
| 2026-05-07 06:42 | 1.77333 | 106.00043 | 26806 ft | 482 kts | 30° |
| 2026-05-07 06:42 | 1.80343 | 106.01601 | 26807 ft | 482 kts | 30° |
| 2026-05-07 06:42 | 1.83331 | 106.03148 | 26806 ft | 482 kts | 30° |
| 2026-05-07 06:43 | 1.86298 | 106.04684 | 26807 ft | 482 kts | 30° |
| 2026-05-07 06:43 | 1.89289 | 106.06233 | 26805 ft | 482 kts | 30° |
| 2026-05-07 06:43 | 1.92298 | 106.07791 | 26806 ft | 483 kts | 29° |
| 2026-05-07 06:43 | 1.95302 | 106.09345 | 26807 ft | 483 kts | 29° |
| 2026-05-07 06:44 | 1.98310 | 106.10900 | 26807 ft | 483 kts | 29° |
| 2026-05-07 06:44 | 2.01261 | 106.12427 | 26806 ft | 483 kts | 30° |
| 2026-05-07 06:44 | 2.04254 | 106.13975 | 26807 ft | 482 kts | 30° |
| 2026-05-07 06:44 | 2.07260 | 106.15529 | 26806 ft | 482 kts | 29° |
| 2026-05-07 06:45 | 2.10237 | 106.17069 | 26808 ft | 482 kts | 30° |
| 2026-05-07 06:45 | 2.13275 | 106.18642 | 26952 ft | 491 kts | 30° |
| 2026-05-07 06:45 | 2.16314 | 106.20214 | 27569 ft | 491 kts | 30° |
| 2026-05-07 06:45 | 2.19349 | 106.21784 | 28281 ft | 489 kts | 30° |
| 2026-05-07 06:46 | 2.22386 | 106.23355 | 28807 ft | 492 kts | 30° |
| 2026-05-07 06:46 | 2.25474 | 106.24953 | 29211 ft | 497 kts | 30° |
| 2026-05-07 06:46 | 2.28549 | 106.26545 | 29747 ft | 499 kts | 29° |
| 2026-05-07 06:46 | 2.31659 | 106.28154 | 30456 ft | 497 kts | 30° |
| 2026-05-07 06:47 | 2.34710 | 106.29733 | 31208 ft | 494 kts | 29° |
| 2026-05-07 06:47 | 2.37755 | 106.31308 | 31901 ft | 492 kts | 29° |
| 2026-05-07 06:47 | 2.40799 | 106.32883 | 32491 ft | 491 kts | 29° |
| 2026-05-07 06:47 | 2.43824 | 106.34449 | 33111 ft | 491 kts | 29° |
| 2026-05-07 06:48 | 2.46839 | 106.36009 | 33777 ft | 489 kts | 29° |
| 2026-05-07 06:48 | 2.49843 | 106.37564 | 34475 ft | 486 kts | 29° |
| 2026-05-07 06:48 | 2.52865 | 106.39128 | 34793 ft | 489 kts | 29° |
| 2026-05-07 06:48 | 2.55893 | 106.40696 | 34791 ft | 487 kts | 29° |
| 2026-05-07 06:49 | 2.61948 | 106.43832 | 34785 ft | 483 kts | 29° |
| 2026-05-07 06:49 | 2.68021 | 106.46978 | 34785 ft | 484 kts | 29° |
| 2026-05-07 06:50 | 2.74009 | 106.50079 | 34783 ft | 483 kts | 29° |
| 2026-05-07 06:50 | 2.80026 | 106.53197 | 34783 ft | 484 kts | 29° |
| 2026-05-07 06:51 | 2.86022 | 106.56301 | 34783 ft | 484 kts | 29° |
| 2026-05-07 06:51 | 2.92007 | 106.59399 | 34784 ft | 484 kts | 29° |
| 2026-05-07 06:52 | 2.98028 | 106.62515 | 34786 ft | 484 kts | 30° |
| 2026-05-07 06:52 | 3.04041 | 106.65627 | 34794 ft | 485 kts | 29° |
| 2026-05-07 06:53 | 3.10022 | 106.68722 | 34798 ft | 484 kts | 30° |
| 2026-05-07 06:53 | 3.16021 | 106.71829 | 34804 ft | 484 kts | 29° |
| 2026-05-07 06:54 | 3.22037 | 106.74944 | 34807 ft | 484 kts | 30° |
| 2026-05-07 06:54 | 3.28035 | 106.78051 | 34807 ft | 483 kts | 29° |
| 2026-05-07 06:55 | 3.34005 | 106.81142 | 34807 ft | 484 kts | 29° |
| 2026-05-07 06:55 | 3.40031 | 106.84264 | 34807 ft | 484 kts | 29° |
| 2026-05-07 06:56 | 3.46009 | 106.87362 | 34806 ft | 485 kts | 29° |
| 2026-05-07 06:56 | 3.52056 | 106.90495 | 34807 ft | 485 kts | 29° |
| 2026-05-07 06:57 | 3.57894 | 106.93845 | 34811 ft | 483 kts | 37° |
| 2026-05-07 06:57 | 3.63426 | 106.97742 | 34806 ft | 484 kts | 37° |
| 2026-05-07 06:58 | 3.68913 | 107.01622 | 34807 ft | 483 kts | 37° |
| 2026-05-07 06:58 | 3.74412 | 107.05508 | 34805 ft | 483 kts | 37° |
| 2026-05-07 06:59 | 3.79897 | 107.09384 | 34801 ft | 483 kts | 37° |
| 2026-05-07 06:59 | 3.85399 | 107.13272 | 34791 ft | 483 kts | 37° |
| 2026-05-07 07:00 | 3.90903 | 107.17161 | 34786 ft | 484 kts | 37° |
| 2026-05-07 07:00 | 3.96410 | 107.21053 | 34785 ft | 485 kts | 37° |
| 2026-05-07 07:01 | 4.01914 | 107.24943 | 34785 ft | 484 kts | 37° |
| 2026-05-07 07:01 | 4.07447 | 107.28854 | 34785 ft | 483 kts | 37° |
| 2026-05-07 07:02 | 4.12962 | 107.32752 | 34783 ft | 483 kts | 37° |
| 2026-05-07 07:02 | 4.18458 | 107.36639 | 34783 ft | 483 kts | 37° |
| 2026-05-07 07:03 | 4.23943 | 107.40518 | 34784 ft | 483 kts | 37° |
| 2026-05-07 07:03 | 4.29464 | 107.44424 | 34784 ft | 484 kts | 37° |
| 2026-05-07 07:04 | 4.34988 | 107.48332 | 34782 ft | 483 kts | 37° |
| 2026-05-07 07:04 | 4.40478 | 107.52216 | 34782 ft | 484 kts | 37° |
| 2026-05-07 07:05 | 4.45980 | 107.56110 | 34785 ft | 483 kts | 37° |
| 2026-05-07 07:05 | 4.51501 | 107.60018 | 34790 ft | 484 kts | 37° |
| 2026-05-07 07:06 | 4.56997 | 107.63909 | 34792 ft | 483 kts | 37° |
| 2026-05-07 07:06 | 4.62491 | 107.67799 | 34799 ft | 484 kts | 37° |
| 2026-05-07 07:07 | 4.68003 | 107.71704 | 34802 ft | 484 kts | 37° |
| 2026-05-07 07:07 | 4.73501 | 107.75598 | 34804 ft | 483 kts | 37° |
| 2026-05-07 07:08 | 4.78981 | 107.79481 | 34804 ft | 483 kts | 37° |
| 2026-05-07 07:08 | 4.84498 | 107.83392 | 34805 ft | 484 kts | 37° |
| 2026-05-07 07:09 | 4.90001 | 107.87292 | 34807 ft | 483 kts | 37° |
| 2026-05-07 07:09 | 4.95538 | 107.91218 | 34804 ft | 483 kts | 37° |
| 2026-05-07 07:10 | 5.01039 | 107.95110 | 34801 ft | 484 kts | 37° |
| 2026-05-07 07:10 | 5.06543 | 107.98972 | 34791 ft | 484 kts | 37° |
| 2026-05-07 07:11 | 5.12068 | 108.02851 | 34785 ft | 484 kts | 37° |
| 2026-05-07 07:11 | 5.17605 | 108.06741 | 34785 ft | 483 kts | 37° |
| 2026-05-07 07:12 | 5.23137 | 108.10628 | 34785 ft | 483 kts | 37° |
| 2026-05-07 07:12 | 5.28643 | 108.14499 | 34785 ft | 483 kts | 37° |
| 2026-05-07 07:13 | 5.34171 | 108.18385 | 34784 ft | 483 kts | 37° |
| 2026-05-07 07:13 | 5.39682 | 108.22261 | 34783 ft | 484 kts | 37° |
| 2026-05-07 07:14 | 5.45195 | 108.26139 | 34784 ft | 483 kts | 37° |
| 2026-05-07 07:14 | 5.50692 | 108.30006 | 34783 ft | 483 kts | 37° |
| 2026-05-07 07:15 | 5.56184 | 108.33871 | 34784 ft | 483 kts | 37° |
| 2026-05-07 07:15 | 5.61684 | 108.37743 | 34782 ft | 483 kts | 37° |
| 2026-05-07 07:16 | 5.67198 | 108.41625 | 34786 ft | 483 kts | 37° |
| 2026-05-07 07:16 | 5.72733 | 108.45523 | 34789 ft | 483 kts | 37° |
| 2026-05-07 07:17 | 5.78235 | 108.49399 | 34789 ft | 483 kts | 37° |
| 2026-05-07 07:17 | 5.83736 | 108.53275 | 34792 ft | 483 kts | 37° |
| 2026-05-07 07:18 | 5.89263 | 108.57169 | 34790 ft | 484 kts | 37° |
| 2026-05-07 07:18 | 5.94772 | 108.61053 | 34792 ft | 484 kts | 37° |
| 2026-05-07 07:19 | 6.00292 | 108.64946 | 34794 ft | 484 kts | 37° |
| 2026-05-07 07:19 | 6.05813 | 108.68840 | 34807 ft | 484 kts | 37° |
| 2026-05-07 07:20 | 6.11306 | 108.72714 | 34807 ft | 484 kts | 37° |
| 2026-05-07 07:20 | 6.16860 | 108.76634 | 34806 ft | 483 kts | 37° |
| 2026-05-07 07:21 | 6.22351 | 108.80510 | 34805 ft | 484 kts | 37° |
| 2026-05-07 07:21 | 6.27874 | 108.84409 | 34804 ft | 484 kts | 37° |
| 2026-05-07 07:22 | 6.33421 | 108.88326 | 34797 ft | 484 kts | 37° |
| 2026-05-07 07:22 | 6.38900 | 108.92197 | 34790 ft | 484 kts | 37° |
| 2026-05-07 07:23 | 6.44424 | 108.96100 | 34787 ft | 484 kts | 36° |
| 2026-05-07 07:23 | 6.49939 | 108.99998 | 34786 ft | 483 kts | 37° |
| 2026-05-07 07:24 | 6.55434 | 109.03883 | 34786 ft | 484 kts | 36° |
| 2026-05-07 07:24 | 6.60951 | 109.07783 | 34786 ft | 483 kts | 37° |
| 2026-05-07 07:25 | 6.69231 | 109.13641 | 34785 ft | 484 kts | 36° |
| 2026-05-07 07:26 | 6.74738 | 109.17539 | 34785 ft | 484 kts | 36° |
| 2026-05-07 07:26 | 6.80242 | 109.21435 | 34785 ft | 482 kts | 36° |
| 2026-05-07 07:27 | 6.85729 | 109.25320 | 34784 ft | 482 kts | 36° |
| 2026-05-07 07:27 | 6.91232 | 109.29218 | 34784 ft | 483 kts | 36° |
| 2026-05-07 07:28 | 6.96746 | 109.33124 | 34784 ft | 484 kts | 36° |
| 2026-05-07 07:28 | 7.02259 | 109.37031 | 34785 ft | 483 kts | 36° |
| 2026-05-07 07:29 | 7.07753 | 109.40926 | 34787 ft | 483 kts | 36° |
| 2026-05-07 07:29 | 7.13241 | 109.44817 | 34796 ft | 482 kts | 36° |
| 2026-05-07 07:30 | 7.18753 | 109.48727 | 34806 ft | 482 kts | 36° |
| 2026-05-07 07:30 | 7.24249 | 109.52626 | 34804 ft | 482 kts | 36° |
| 2026-05-07 07:31 | 7.29726 | 109.56513 | 34805 ft | 482 kts | 36° |
| 2026-05-07 07:31 | 7.35215 | 109.60410 | 34804 ft | 482 kts | 36° |
| 2026-05-07 07:32 | 7.40700 | 109.64306 | 34803 ft | 482 kts | 36° |
| 2026-05-07 07:32 | 7.46201 | 109.68214 | 34806 ft | 481 kts | 36° |
| 2026-05-07 07:33 | 7.51677 | 109.72105 | 34807 ft | 481 kts | 36° |
| 2026-05-07 07:33 | 7.57229 | 109.76051 | 34802 ft | 481 kts | 36° |
| 2026-05-07 07:34 | 7.62695 | 109.79939 | 34801 ft | 481 kts | 36° |
| 2026-05-07 07:34 | 7.68198 | 109.83853 | 34794 ft | 480 kts | 36° |
| 2026-05-07 07:35 | 7.73653 | 109.87734 | 34785 ft | 480 kts | 36° |
| 2026-05-07 07:35 | 7.79103 | 109.91613 | 34786 ft | 480 kts | 36° |
| 2026-05-07 07:36 | 7.84585 | 109.95516 | 34785 ft | 480 kts | 36° |
| 2026-05-07 07:36 | 7.90031 | 109.99395 | 34782 ft | 480 kts | 36° |
| 2026-05-07 07:37 | 7.95488 | 110.03283 | 34784 ft | 480 kts | 36° |
| 2026-05-07 07:37 | 8.00956 | 110.07180 | 34783 ft | 479 kts | 36° |
| 2026-05-07 07:38 | 8.06417 | 110.11073 | 34785 ft | 481 kts | 36° |
| 2026-05-07 07:38 | 8.11898 | 110.14982 | 34785 ft | 480 kts | 36° |
| 2026-05-07 07:39 | 8.17366 | 110.18883 | 34787 ft | 480 kts | 36° |
| 2026-05-07 07:39 | 8.22785 | 110.22753 | 34790 ft | 480 kts | 36° |
| 2026-05-07 07:40 | 8.28233 | 110.26677 | 34792 ft | 480 kts | 36° |
| 2026-05-07 07:40 | 8.33712 | 110.30625 | 34790 ft | 480 kts | 36° |
| 2026-05-07 07:41 | 8.39188 | 110.34572 | 34794 ft | 481 kts | 36° |
| 2026-05-07 07:41 | 8.44675 | 110.38527 | 34797 ft | 481 kts | 36° |
| 2026-05-07 07:42 | 8.50122 | 110.42455 | 34800 ft | 481 kts | 36° |
| 2026-05-07 07:42 | 8.55570 | 110.46384 | 34804 ft | 480 kts | 36° |
| 2026-05-07 07:43 | 8.61016 | 110.50314 | 34804 ft | 481 kts | 36° |
| 2026-05-07 07:43 | 8.66481 | 110.54259 | 34806 ft | 481 kts | 36° |
| 2026-05-07 07:44 | 8.71967 | 110.58221 | 34806 ft | 482 kts | 36° |
| 2026-05-07 07:44 | 8.77415 | 110.62156 | 34805 ft | 481 kts | 36° |
| 2026-05-07 07:45 | 8.82871 | 110.66098 | 34805 ft | 481 kts | 36° |
| 2026-05-07 07:45 | 8.88352 | 110.70061 | 34805 ft | 481 kts | 36° |
| 2026-05-07 07:46 | 8.93804 | 110.74003 | 34804 ft | 483 kts | 36° |
| 2026-05-07 07:46 | 8.99274 | 110.77960 | 34805 ft | 481 kts | 36° |
| 2026-05-07 07:47 | 9.04771 | 110.81938 | 34805 ft | 483 kts | 36° |
| 2026-05-07 07:47 | 9.10232 | 110.85892 | 34804 ft | 482 kts | 35° |
| 2026-05-07 07:48 | 9.15703 | 110.89854 | 34804 ft | 482 kts | 35° |
| 2026-05-07 07:48 | 9.21147 | 110.93799 | 34796 ft | 481 kts | 35° |
| 2026-05-07 07:49 | 9.26627 | 110.97771 | 34790 ft | 482 kts | 35° |
| 2026-05-07 07:49 | 9.32090 | 111.01732 | 34793 ft | 481 kts | 35° |
| 2026-05-07 07:50 | 9.37555 | 111.05696 | 34793 ft | 481 kts | 35° |
| 2026-05-07 07:50 | 9.42973 | 111.09628 | 34789 ft | 481 kts | 35° |
| 2026-05-07 07:51 | 9.48447 | 111.13602 | 34787 ft | 481 kts | 35° |
| 2026-05-07 07:51 | 9.53884 | 111.17551 | 34797 ft | 482 kts | 35° |
| 2026-05-07 07:52 | 9.59371 | 111.21537 | 34805 ft | 481 kts | 35° |
| 2026-05-07 07:52 | 9.64787 | 111.25474 | 34805 ft | 482 kts | 35° |
| 2026-05-07 07:53 | 9.70260 | 111.29453 | 34805 ft | 480 kts | 35° |
| 2026-05-07 07:53 | 9.75681 | 111.33397 | 34806 ft | 481 kts | 35° |
| 2026-05-07 07:54 | 9.81133 | 111.37364 | 34805 ft | 481 kts | 35° |
| 2026-05-07 07:54 | 9.86609 | 111.41351 | 34805 ft | 481 kts | 35° |
| 2026-05-07 07:55 | 9.92045 | 111.45310 | 34805 ft | 481 kts | 35° |
| 2026-05-07 07:55 | 9.97521 | 111.49301 | 34805 ft | 481 kts | 35° |
| 2026-05-07 07:56 | 10.02976 | 111.53277 | 34805 ft | 482 kts | 35° |
| 2026-05-07 07:56 | 10.08408 | 111.57239 | 34806 ft | 482 kts | 34° |
| 2026-05-07 07:57 | 10.13870 | 111.61224 | 34809 ft | 481 kts | 34° |
| 2026-05-07 07:57 | 10.19356 | 111.65228 | 34808 ft | 482 kts | 35° |
| 2026-05-07 07:58 | 10.24813 | 111.69213 | 34807 ft | 481 kts | 35° |
| 2026-05-07 07:58 | 10.30262 | 111.73194 | 34806 ft | 482 kts | 35° |
| 2026-05-07 07:59 | 10.35720 | 111.77183 | 34807 ft | 482 kts | 35° |
| 2026-05-07 07:59 | 10.41179 | 111.81175 | 34807 ft | 482 kts | 35° |
| 2026-05-07 08:00 | 10.46639 | 111.85168 | 34808 ft | 482 kts | 34° |
| 2026-05-07 08:00 | 10.52098 | 111.89163 | 34809 ft | 482 kts | 35° |
| 2026-05-07 08:01 | 10.57543 | 111.93150 | 34807 ft | 482 kts | 34° |
| 2026-05-07 08:01 | 10.63009 | 111.97154 | 34805 ft | 482 kts | 34° |
| 2026-05-07 08:02 | 10.68489 | 112.01170 | 34808 ft | 483 kts | 34° |
| 2026-05-07 08:02 | 10.73959 | 112.05180 | 34814 ft | 483 kts | 34° |
| 2026-05-07 08:03 | 10.79405 | 112.09174 | 34817 ft | 483 kts | 34° |
| 2026-05-07 08:03 | 10.84857 | 112.13174 | 34820 ft | 483 kts | 34° |
| 2026-05-07 08:04 | 10.90304 | 112.17174 | 34826 ft | 482 kts | 34° |
| 2026-05-07 08:04 | 10.95780 | 112.21195 | 34826 ft | 482 kts | 34° |
| 2026-05-07 08:05 | 11.01245 | 112.25190 | 34823 ft | 482 kts | 34° |
| 2026-05-07 08:05 | 11.06736 | 112.29205 | 34814 ft | 483 kts | 34° |
| 2026-05-07 08:06 | 11.12192 | 112.33196 | 34813 ft | 482 kts | 34° |
| 2026-05-07 08:06 | 11.17690 | 112.37221 | 34812 ft | 482 kts | 34° |
| 2026-05-07 08:07 | 11.23184 | 112.41245 | 34813 ft | 481 kts | 34° |
| 2026-05-07 08:07 | 11.28623 | 112.45230 | 34814 ft | 481 kts | 34° |
| 2026-05-07 08:08 | 11.34288 | 112.48959 | 34816 ft | 480 kts | 31° |
| 2026-05-07 08:08 | 11.39957 | 112.52594 | 34816 ft | 480 kts | 31° |
| 2026-05-07 08:09 | 11.45606 | 112.56217 | 34815 ft | 480 kts | 31° |
| 2026-05-07 08:09 | 11.51276 | 112.59856 | 34812 ft | 481 kts | 31° |
| 2026-05-07 08:10 | 11.56924 | 112.63483 | 34808 ft | 481 kts | 31° |
| 2026-05-07 08:10 | 11.62583 | 112.67118 | 34805 ft | 479 kts | 31° |
| 2026-05-07 08:11 | 11.68261 | 112.70767 | 34805 ft | 480 kts | 31° |
| 2026-05-07 08:11 | 11.73906 | 112.74397 | 34805 ft | 480 kts | 31° |
| 2026-05-07 08:12 | 11.79576 | 112.78045 | 34805 ft | 480 kts | 31° |
| 2026-05-07 08:12 | 11.85238 | 112.81689 | 34805 ft | 480 kts | 31° |
| 2026-05-07 08:13 | 11.90879 | 112.85321 | 34804 ft | 480 kts | 31° |
| 2026-05-07 08:13 | 11.96539 | 112.88969 | 34804 ft | 479 kts | 30° |
| 2026-05-07 08:14 | 12.02207 | 112.92622 | 34809 ft | 479 kts | 30° |
| 2026-05-07 08:14 | 12.07898 | 112.96292 | 34817 ft | 480 kts | 31° |
| 2026-05-07 08:15 | 12.13542 | 112.99934 | 34828 ft | 480 kts | 31° |
| 2026-05-07 08:15 | 12.19189 | 113.03580 | 34828 ft | 479 kts | 30° |
| 2026-05-07 08:16 | 12.24872 | 113.07250 | 34828 ft | 479 kts | 30° |
| 2026-05-07 08:16 | 12.30527 | 113.10905 | 34828 ft | 479 kts | 30° |
| 2026-05-07 08:17 | 12.36200 | 113.14573 | 34828 ft | 479 kts | 30° |
| 2026-05-07 08:17 | 12.41849 | 113.18227 | 34828 ft | 480 kts | 30° |
| 2026-05-07 08:18 | 12.47503 | 113.21887 | 34828 ft | 480 kts | 30° |
| 2026-05-07 08:18 | 12.53134 | 113.25534 | 34827 ft | 479 kts | 30° |
| 2026-05-07 08:19 | 12.58796 | 113.29202 | 34827 ft | 479 kts | 30° |
| 2026-05-07 08:19 | 12.64421 | 113.32849 | 34827 ft | 479 kts | 30° |
| 2026-05-07 08:20 | 12.70075 | 113.36517 | 34827 ft | 479 kts | 30° |
| 2026-05-07 08:20 | 12.75698 | 113.40165 | 34826 ft | 479 kts | 30° |
| 2026-05-07 08:21 | 12.81375 | 113.43851 | 34826 ft | 479 kts | 30° |
| 2026-05-07 08:21 | 12.87009 | 113.47511 | 34826 ft | 479 kts | 30° |
| 2026-05-07 08:22 | 12.92651 | 113.51179 | 34826 ft | 479 kts | 30° |
| 2026-05-07 08:22 | 12.98302 | 113.54855 | 34825 ft | 479 kts | 30° |
| 2026-05-07 08:23 | 13.03914 | 113.58507 | 34824 ft | 479 kts | 30° |
| 2026-05-07 08:23 | 13.09556 | 113.62180 | 34828 ft | 478 kts | 30° |
| 2026-05-07 08:24 | 13.15184 | 113.65846 | 34830 ft | 478 kts | 31° |
| 2026-05-07 08:24 | 13.20826 | 113.69524 | 34829 ft | 478 kts | 30° |
| 2026-05-07 08:25 | 13.26447 | 113.73189 | 34823 ft | 478 kts | 31° |
| 2026-05-07 08:25 | 13.32084 | 113.76868 | 34817 ft | 478 kts | 30° |
| 2026-05-07 08:26 | 13.40527 | 113.82381 | 34814 ft | 478 kts | 31° |
| 2026-05-07 08:26 | 13.46157 | 113.86060 | 34815 ft | 477 kts | 31° |
| 2026-05-07 08:27 | 13.51775 | 113.89733 | 34817 ft | 478 kts | 31° |
| 2026-05-07 08:27 | 13.57410 | 113.93419 | 34828 ft | 477 kts | 31° |
| 2026-05-07 08:28 | 13.63028 | 113.97096 | 34837 ft | 476 kts | 31° |
| 2026-05-07 08:28 | 13.68639 | 114.00771 | 34836 ft | 476 kts | 31° |
| 2026-05-07 08:29 | 13.74262 | 114.04456 | 34834 ft | 476 kts | 31° |
| 2026-05-07 08:29 | 13.79819 | 114.08099 | 34827 ft | 476 kts | 31° |
| 2026-05-07 08:30 | 13.85439 | 114.11787 | 34824 ft | 475 kts | 31° |
| 2026-05-07 08:30 | 13.91021 | 114.15451 | 34821 ft | 475 kts | 31° |
| 2026-05-07 08:31 | 13.96617 | 114.19126 | 34820 ft | 475 kts | 31° |
| 2026-05-07 08:31 | 14.02178 | 114.22781 | 34823 ft | 475 kts | 31° |
| 2026-05-07 08:32 | 14.07804 | 114.26481 | 34829 ft | 477 kts | 31° |
| 2026-05-07 08:32 | 14.13386 | 114.30153 | 34831 ft | 477 kts | 31° |
| 2026-05-07 08:33 | 14.18986 | 114.33840 | 34831 ft | 476 kts | 31° |
| 2026-05-07 08:33 | 14.24590 | 114.37531 | 34831 ft | 476 kts | 31° |
| 2026-05-07 08:34 | 14.30231 | 114.41250 | 34831 ft | 476 kts | 31° |
| 2026-05-07 08:34 | 14.35799 | 114.44922 | 34828 ft | 476 kts | 31° |
| 2026-05-07 08:35 | 14.41408 | 114.48624 | 34828 ft | 477 kts | 31° |
| 2026-05-07 08:35 | 14.47043 | 114.52344 | 34828 ft | 478 kts | 31° |
| 2026-05-07 08:36 | 14.52661 | 114.56057 | 34827 ft | 477 kts | 31° |
| 2026-05-07 08:36 | 14.58260 | 114.59759 | 34827 ft | 477 kts | 31° |
| 2026-05-07 08:37 | 14.63877 | 114.63474 | 34827 ft | 477 kts | 31° |
| 2026-05-07 08:37 | 14.69490 | 114.67191 | 34826 ft | 477 kts | 31° |
| 2026-05-07 08:38 | 14.75064 | 114.70882 | 34826 ft | 477 kts | 31° |
| 2026-05-07 08:38 | 14.80672 | 114.74599 | 34825 ft | 477 kts | 32° |
| 2026-05-07 08:39 | 14.86265 | 114.78309 | 34825 ft | 477 kts | 32° |
| 2026-05-07 08:39 | 14.91867 | 114.82026 | 34825 ft | 475 kts | 31° |
| 2026-05-07 08:40 | 14.97446 | 114.85731 | 34824 ft | 476 kts | 31° |
| 2026-05-07 08:40 | 15.03033 | 114.89443 | 34825 ft | 478 kts | 31° |
| 2026-05-07 08:41 | 15.08661 | 114.93185 | 34824 ft | 477 kts | 32° |
| 2026-05-07 08:41 | 15.14235 | 114.96893 | 34833 ft | 477 kts | 32° |
| 2026-05-07 08:42 | 15.19873 | 115.00647 | 34839 ft | 475 kts | 32° |
| 2026-05-07 08:42 | 15.25422 | 115.04343 | 34848 ft | 475 kts | 31° |
| 2026-05-07 08:43 | 15.30987 | 115.08053 | 34848 ft | 476 kts | 31° |
| 2026-05-07 08:43 | 15.36617 | 115.11808 | 34848 ft | 476 kts | 31° |
| 2026-05-07 08:44 | 15.42186 | 115.15524 | 34847 ft | 477 kts | 31° |
| 2026-05-07 08:44 | 15.47769 | 115.19254 | 34847 ft | 477 kts | 31° |
| 2026-05-07 08:45 | 15.53374 | 115.23000 | 34846 ft | 477 kts | 31° |
| 2026-05-07 08:45 | 15.58997 | 115.26759 | 34847 ft | 476 kts | 31° |
| 2026-05-07 08:46 | 15.64601 | 115.30509 | 34844 ft | 476 kts | 31° |
| 2026-05-07 08:46 | 15.70145 | 115.34222 | 34840 ft | 476 kts | 31° |
| 2026-05-07 08:47 | 15.75750 | 115.37978 | 34840 ft | 477 kts | 31° |
| 2026-05-07 08:47 | 15.81317 | 115.41711 | 34843 ft | 478 kts | 31° |
| 2026-05-07 08:48 | 15.86941 | 115.45483 | 34840 ft | 477 kts | 31° |
| 2026-05-07 08:48 | 15.92532 | 115.49238 | 34843 ft | 477 kts | 31° |
| 2026-05-07 08:49 | 15.98148 | 115.53011 | 34846 ft | 477 kts | 31° |
| 2026-05-07 08:49 | 16.03704 | 115.56746 | 34845 ft | 476 kts | 31° |
| 2026-05-07 08:50 | 16.09296 | 115.60508 | 34845 ft | 477 kts | 31° |
| 2026-05-07 08:50 | 16.14908 | 115.64286 | 34850 ft | 478 kts | 31° |
| 2026-05-07 08:51 | 16.20544 | 115.68083 | 34842 ft | 477 kts | 32° |
| 2026-05-07 08:51 | 16.26108 | 115.71835 | 34838 ft | 477 kts | 31° |
| 2026-05-07 08:52 | 16.31755 | 115.75644 | 34838 ft | 477 kts | 31° |
| 2026-05-07 08:52 | 16.37345 | 115.79417 | 34837 ft | 477 kts | 31° |
| 2026-05-07 08:53 | 16.43017 | 115.83025 | 34835 ft | 477 kts | 30° |
| 2026-05-07 08:53 | 16.48723 | 115.86579 | 34835 ft | 477 kts | 30° |
| 2026-05-07 08:54 | 16.54437 | 115.90139 | 34839 ft | 477 kts | 29° |
| 2026-05-07 08:54 | 16.60138 | 115.93694 | 34837 ft | 477 kts | 29° |
| 2026-05-07 08:55 | 16.65847 | 115.97257 | 34840 ft | 477 kts | 29° |
| 2026-05-07 08:55 | 16.71586 | 116.00841 | 34838 ft | 477 kts | 29° |
| 2026-05-07 08:56 | 16.77256 | 116.04383 | 34833 ft | 477 kts | 29° |
| 2026-05-07 08:56 | 16.82966 | 116.07954 | 34827 ft | 477 kts | 29° |
| 2026-05-07 08:57 | 16.88663 | 116.11519 | 34836 ft | 476 kts | 29° |
| 2026-05-07 08:57 | 16.94357 | 116.15084 | 34845 ft | 476 kts | 29° |
| 2026-05-07 08:58 | 17.00060 | 116.18658 | 34846 ft | 477 kts | 29° |
| 2026-05-07 08:58 | 17.05721 | 116.22208 | 34847 ft | 476 kts | 29° |
| 2026-05-07 08:59 | 17.11482 | 116.25823 | 34853 ft | 477 kts | 29° |
| 2026-05-07 08:59 | 17.17162 | 116.29390 | 34852 ft | 478 kts | 29° |
| 2026-05-07 09:00 | 17.22896 | 116.32993 | 34853 ft | 477 kts | 29° |
| 2026-05-07 09:00 | 17.28587 | 116.36573 | 34853 ft | 476 kts | 29° |
| 2026-05-07 09:01 | 17.34338 | 116.40193 | 34853 ft | 477 kts | 29° |
| 2026-05-07 09:01 | 17.40041 | 116.43785 | 34855 ft | 477 kts | 29° |
| 2026-05-07 09:02 | 17.45779 | 116.47401 | 34853 ft | 478 kts | 29° |
| 2026-05-07 09:02 | 17.51522 | 116.51024 | 34855 ft | 478 kts | 29° |
| 2026-05-07 09:03 | 17.57215 | 116.54617 | 34857 ft | 479 kts | 29° |
| 2026-05-07 09:03 | 17.62926 | 116.58225 | 34862 ft | 479 kts | 29° |
| 2026-05-07 09:04 | 17.68681 | 116.61864 | 34861 ft | 479 kts | 29° |
| 2026-05-07 09:04 | 17.74409 | 116.65488 | 34862 ft | 479 kts | 29° |
| 2026-05-07 09:05 | 17.80122 | 116.69105 | 34860 ft | 479 kts | 29° |
| 2026-05-07 09:05 | 17.85836 | 116.72725 | 34861 ft | 479 kts | 29° |
| 2026-05-07 09:06 | 17.91560 | 116.76355 | 34862 ft | 479 kts | 29° |
| 2026-05-07 09:06 | 17.97280 | 116.79984 | 34864 ft | 479 kts | 29° |
| 2026-05-07 09:07 | 18.02990 | 116.83611 | 34856 ft | 479 kts | 29° |
| 2026-05-07 09:07 | 18.08715 | 116.87250 | 34849 ft | 478 kts | 29° |
| 2026-05-07 09:08 | 18.14426 | 116.90882 | 34853 ft | 478 kts | 29° |
| 2026-05-07 09:08 | 18.20157 | 116.94531 | 34855 ft | 477 kts | 29° |
| 2026-05-07 09:09 | 18.25852 | 116.98158 | 34863 ft | 478 kts | 29° |
| 2026-05-07 09:09 | 18.31539 | 117.01784 | 34869 ft | 477 kts | 29° |
| 2026-05-07 09:10 | 18.37252 | 117.05429 | 34869 ft | 477 kts | 29° |
| 2026-05-07 09:10 | 18.42945 | 117.09064 | 34868 ft | 478 kts | 29° |
| 2026-05-07 09:11 | 18.48634 | 117.12700 | 34869 ft | 478 kts | 29° |
| 2026-05-07 09:11 | 18.54360 | 117.16362 | 34868 ft | 477 kts | 29° |
| 2026-05-07 09:12 | 18.60059 | 117.20010 | 34868 ft | 478 kts | 29° |
| 2026-05-07 09:12 | 18.65740 | 117.23649 | 34866 ft | 478 kts | 29° |
| 2026-05-07 09:13 | 18.71439 | 117.27302 | 34857 ft | 476 kts | 29° |
| 2026-05-07 09:13 | 18.77096 | 117.30932 | 34847 ft | 477 kts | 29° |
| 2026-05-07 09:14 | 18.82774 | 117.34577 | 34848 ft | 478 kts | 29° |
| 2026-05-07 09:14 | 18.88483 | 117.38245 | 34846 ft | 478 kts | 29° |
| 2026-05-07 09:15 | 18.94190 | 117.41916 | 34846 ft | 478 kts | 29° |
| 2026-05-07 09:15 | 18.99883 | 117.45579 | 34849 ft | 479 kts | 28° |
| 2026-05-07 09:16 | 19.05589 | 117.49256 | 34850 ft | 478 kts | 28° |
| 2026-05-07 09:16 | 19.11257 | 117.52910 | 34854 ft | 478 kts | 28° |
| 2026-05-07 09:17 | 19.16972 | 117.56597 | 34859 ft | 478 kts | 29° |
| 2026-05-07 09:17 | 19.22668 | 117.60275 | 34862 ft | 478 kts | 29° |
| 2026-05-07 09:18 | 19.28368 | 117.63959 | 34862 ft | 478 kts | 28° |
| 2026-05-07 09:18 | 19.34078 | 117.67652 | 34860 ft | 479 kts | 29° |
| 2026-05-07 09:19 | 19.39796 | 117.71354 | 34859 ft | 478 kts | 29° |
| 2026-05-07 09:19 | 19.45451 | 117.75017 | 34859 ft | 477 kts | 28° |
| 2026-05-07 09:20 | 19.51143 | 117.78709 | 34864 ft | 478 kts | 28° |
| 2026-05-07 09:20 | 19.56822 | 117.82394 | 34867 ft | 478 kts | 28° |
| 2026-05-07 09:21 | 19.62543 | 117.86110 | 34868 ft | 479 kts | 29° |
| 2026-05-07 09:21 | 19.68256 | 117.89824 | 34868 ft | 478 kts | 28° |
| 2026-05-07 09:22 | 19.73954 | 117.93531 | 34868 ft | 478 kts | 28° |
| 2026-05-07 09:22 | 19.79606 | 117.97212 | 34866 ft | 477 kts | 28° |
| 2026-05-07 09:23 | 19.85302 | 118.00923 | 34867 ft | 478 kts | 28° |
| 2026-05-07 09:23 | 19.90959 | 118.04614 | 34863 ft | 479 kts | 28° |
| 2026-05-07 09:24 | 19.96645 | 118.08325 | 34866 ft | 479 kts | 28° |
| 2026-05-07 09:24 | 20.02361 | 118.12060 | 34868 ft | 479 kts | 28° |
| 2026-05-07 09:25 | 20.08061 | 118.15788 | 34867 ft | 478 kts | 28° |
| 2026-05-07 09:25 | 20.13715 | 118.19488 | 34874 ft | 477 kts | 28° |
| 2026-05-07 09:26 | 20.19394 | 118.23208 | 34877 ft | 478 kts | 28° |
| 2026-05-07 09:26 | 20.25078 | 118.26935 | 34879 ft | 478 kts | 28° |
| 2026-05-07 09:27 | 20.30742 | 118.30651 | 34887 ft | 479 kts | 28° |
| 2026-05-07 09:28 | 20.39300 | 118.36274 | 34888 ft | 478 kts | 28° |
| 2026-05-07 09:28 | 20.44940 | 118.39983 | 34887 ft | 478 kts | 28° |
| 2026-05-07 09:29 | 20.50627 | 118.43726 | 34889 ft | 478 kts | 28° |
| 2026-05-07 09:29 | 20.56298 | 118.47463 | 34891 ft | 479 kts | 28° |
| 2026-05-07 09:30 | 20.61968 | 118.51201 | 34890 ft | 479 kts | 28° |
| 2026-05-07 09:30 | 20.67663 | 118.54959 | 34891 ft | 479 kts | 28° |
| 2026-05-07 09:31 | 20.73324 | 118.58699 | 34888 ft | 478 kts | 28° |
| 2026-05-07 09:31 | 20.78967 | 118.62430 | 34886 ft | 478 kts | 28° |
| 2026-05-07 09:32 | 20.84641 | 118.66184 | 34877 ft | 479 kts | 28° |
| 2026-05-07 09:32 | 20.90356 | 118.69969 | 34879 ft | 479 kts | 28° |
| 2026-05-07 09:33 | 20.96045 | 118.73741 | 34873 ft | 479 kts | 28° |
| 2026-05-07 09:33 | 21.01711 | 118.77500 | 34865 ft | 479 kts | 28° |
| 2026-05-07 09:34 | 21.07390 | 118.81272 | 34868 ft | 479 kts | 29° |
| 2026-05-07 09:34 | 21.13050 | 118.85034 | 34873 ft | 479 kts | 29° |
| 2026-05-07 09:35 | 21.18759 | 118.88833 | 34873 ft | 479 kts | 28° |
| 2026-05-07 09:35 | 21.24398 | 118.92589 | 34874 ft | 480 kts | 29° |
| 2026-05-07 09:36 | 21.30106 | 118.96394 | 34873 ft | 479 kts | 28° |
| 2026-05-07 09:36 | 21.35789 | 119.00185 | 34874 ft | 480 kts | 29° |
| 2026-05-07 09:37 | 21.41442 | 119.03960 | 34878 ft | 481 kts | 29° |
| 2026-05-07 09:37 | 21.47154 | 119.07778 | 34876 ft | 480 kts | 29° |
| 2026-05-07 09:38 | 21.52817 | 119.11566 | 34884 ft | 482 kts | 29° |
| 2026-05-07 09:38 | 21.58530 | 119.15392 | 34886 ft | 481 kts | 29° |
| 2026-05-07 09:39 | 21.64199 | 119.19192 | 34888 ft | 481 kts | 29° |
| 2026-05-07 09:39 | 21.69912 | 119.23025 | 34889 ft | 481 kts | 29° |
| 2026-05-07 09:40 | 21.75602 | 119.26846 | 34888 ft | 481 kts | 29° |
| 2026-05-07 09:40 | 21.81313 | 119.30685 | 34889 ft | 481 kts | 29° |
| 2026-05-07 09:41 | 21.87019 | 119.34525 | 34887 ft | 482 kts | 29° |
| 2026-05-07 09:41 | 21.92721 | 119.38365 | 34890 ft | 482 kts | 29° |
| 2026-05-07 09:42 | 21.98394 | 119.42190 | 34888 ft | 481 kts | 29° |
| 2026-05-07 09:42 | 22.04095 | 119.46036 | 34893 ft | 482 kts | 29° |
| 2026-05-07 09:43 | 22.09811 | 119.49898 | 34889 ft | 481 kts | 29° |
| 2026-05-07 09:43 | 22.15492 | 119.53738 | 34892 ft | 481 kts | 29° |
| 2026-05-07 09:44 | 22.21167 | 119.57578 | 34894 ft | 482 kts | 29° |
| 2026-05-07 09:44 | 22.26874 | 119.61445 | 34893 ft | 482 kts | 29° |
| 2026-05-07 09:45 | 22.32580 | 119.65314 | 34895 ft | 482 kts | 29° |
| 2026-05-07 09:45 | 22.38271 | 119.69177 | 34890 ft | 482 kts | 29° |
| 2026-05-07 09:46 | 22.43956 | 119.73038 | 34888 ft | 483 kts | 29° |
| 2026-05-07 09:46 | 22.49667 | 119.76923 | 34893 ft | 483 kts | 29° |
| 2026-05-07 09:47 | 22.55337 | 119.80783 | 34889 ft | 482 kts | 29° |
| 2026-05-07 09:47 | 22.61028 | 119.84660 | 34891 ft | 483 kts | 29° |
| 2026-05-07 09:48 | 22.66761 | 119.88571 | 34892 ft | 483 kts | 29° |
| 2026-05-07 09:48 | 22.72460 | 119.92462 | 34887 ft | 483 kts | 29° |
| 2026-05-07 09:49 | 22.78163 | 119.96360 | 34895 ft | 483 kts | 29° |
| 2026-05-07 09:49 | 22.83888 | 120.00276 | 34892 ft | 483 kts | 29° |
| 2026-05-07 09:50 | 22.89588 | 120.04179 | 34901 ft | 484 kts | 29° |
| 2026-05-07 09:50 | 22.95283 | 120.08084 | 34911 ft | 484 kts | 28° |
| 2026-05-07 09:51 | 23.01032 | 120.12028 | 34913 ft | 484 kts | 28° |
| 2026-05-07 09:51 | 23.06740 | 120.15950 | 34922 ft | 485 kts | 28° |
| 2026-05-07 09:52 | 23.12479 | 120.19852 | 34918 ft | 483 kts | 25° |
| 2026-05-07 09:52 | 23.18678 | 120.22559 | 34933 ft | 477 kts | 14° |
| 2026-05-07 09:53 | 23.25010 | 120.24822 | 34930 ft | 476 kts | 14° |
| 2026-05-07 09:53 | 23.31325 | 120.27093 | 34941 ft | 476 kts | 14° |
| 2026-05-07 09:54 | 23.37662 | 120.29385 | 34934 ft | 477 kts | 14° |
| 2026-05-07 09:54 | 23.43955 | 120.31667 | 34934 ft | 475 kts | 14° |
| 2026-05-07 09:55 | 23.50243 | 120.33953 | 34927 ft | 477 kts | 14° |
| 2026-05-07 09:55 | 23.56548 | 120.36249 | 34934 ft | 477 kts | 14° |
| 2026-05-07 09:56 | 23.61531 | 120.38064 | 34923 ft | 477 kts | 14° |
| 2026-05-07 09:56 | 23.67888 | 120.40374 | 34920 ft | 477 kts | 14° |
| 2026-05-07 09:57 | 23.74158 | 120.42656 | 34920 ft | 476 kts | 14° |
| 2026-05-07 09:57 | 23.80507 | 120.44968 | 34922 ft | 477 kts | 14° |
| 2026-05-07 09:58 | 23.86804 | 120.47265 | 34918 ft | 476 kts | 14° |
| 2026-05-07 09:58 | 23.93083 | 120.49559 | 34915 ft | 477 kts | 14° |
| 2026-05-07 09:59 | 23.99384 | 120.51878 | 34928 ft | 475 kts | 14° |
| 2026-05-07 09:59 | 24.05717 | 120.54209 | 34930 ft | 476 kts | 14° |
| 2026-05-07 10:00 | 24.12009 | 120.56503 | 34941 ft | 476 kts | 14° |
| 2026-05-07 10:00 | 24.18340 | 120.58834 | 34939 ft | 476 kts | 14° |
| 2026-05-07 10:01 | 24.24648 | 120.61155 | 34946 ft | 475 kts | 14° |
| 2026-05-07 10:01 | 24.30954 | 120.63477 | 34950 ft | 476 kts | 14° |
| 2026-05-07 10:02 | 24.37239 | 120.65794 | 34938 ft | 476 kts | 14° |
| 2026-05-07 10:02 | 24.43503 | 120.68105 | 34935 ft | 477 kts | 14° |
| 2026-05-07 10:03 | 24.49799 | 120.70431 | 34936 ft | 477 kts | 14° |
| 2026-05-07 10:03 | 24.55798 | 120.73686 | 34912 ft | 487 kts | 31° |
| 2026-05-07 10:04 | 24.60793 | 120.78867 | 34939 ft | 498 kts | 44° |
| 2026-05-07 10:04 | 24.65288 | 120.84617 | 34952 ft | 496 kts | 45° |
| 2026-05-07 10:05 | 24.69785 | 120.90390 | 34957 ft | 497 kts | 45° |
| 2026-05-07 10:05 | 24.74307 | 120.96198 | 34939 ft | 500 kts | 45° |
| 2026-05-07 10:06 | 24.78805 | 121.01983 | 34931 ft | 497 kts | 45° |
| 2026-05-07 10:06 | 24.83315 | 121.07788 | 34941 ft | 500 kts | 45° |
| 2026-05-07 10:07 | 24.87841 | 121.13617 | 34942 ft | 501 kts | 45° |
| 2026-05-07 10:07 | 24.92342 | 121.19421 | 34938 ft | 498 kts | 45° |
| 2026-05-07 10:08 | 24.96864 | 121.25256 | 34929 ft | 501 kts | 45° |
| 2026-05-07 10:08 | 25.01357 | 121.31063 | 34921 ft | 499 kts | 45° |
| 2026-05-07 10:09 | 25.05873 | 121.36905 | 34918 ft | 500 kts | 45° |
| 2026-05-07 10:09 | 25.10375 | 121.42737 | 34918 ft | 500 kts | 45° |
| 2026-05-07 10:10 | 25.14915 | 121.48626 | 34926 ft | 502 kts | 45° |
| 2026-05-07 10:10 | 25.19880 | 121.53876 | 34924 ft | 491 kts | 31° |
| 2026-05-07 10:11 | 25.25466 | 121.58180 | 34928 ft | 491 kts | 29° |
| 2026-05-07 10:11 | 25.31093 | 121.62478 | 34925 ft | 492 kts | 29° |
| 2026-05-07 10:12 | 25.36732 | 121.66793 | 34911 ft | 491 kts | 30° |
| 2026-05-07 10:12 | 25.42359 | 121.71107 | 34908 ft | 492 kts | 30° |
| 2026-05-07 10:13 | 25.47986 | 121.75424 | 34907 ft | 490 kts | 30° |
| 2026-05-07 10:13 | 25.53602 | 121.79740 | 34907 ft | 491 kts | 30° |
| 2026-05-07 10:14 | 25.59209 | 121.84053 | 34908 ft | 491 kts | 30° |
| 2026-05-07 10:14 | 25.64875 | 121.88417 | 34908 ft | 492 kts | 30° |
| 2026-05-07 10:15 | 25.70522 | 121.92767 | 34908 ft | 492 kts | 30° |
| 2026-05-07 10:15 | 25.76163 | 121.97089 | 34909 ft | 493 kts | 29° |
| 2026-05-07 10:16 | 25.81838 | 122.01406 | 34907 ft | 491 kts | 29° |
| 2026-05-07 10:16 | 25.87464 | 122.05692 | 34908 ft | 493 kts | 29° |
| 2026-05-07 10:17 | 25.93119 | 122.10008 | 34908 ft | 493 kts | 29° |
| 2026-05-07 10:17 | 25.98813 | 122.14357 | 34911 ft | 495 kts | 29° |
| 2026-05-07 10:18 | 26.04476 | 122.18690 | 34910 ft | 492 kts | 29° |
| 2026-05-07 10:18 | 26.10144 | 122.23032 | 34914 ft | 495 kts | 29° |
| 2026-05-07 10:19 | 26.15783 | 122.27370 | 34922 ft | 492 kts | 29° |
| 2026-05-07 10:19 | 26.21419 | 122.31781 | 34923 ft | 495 kts | 30° |
| 2026-05-07 10:20 | 26.27083 | 122.36220 | 34926 ft | 494 kts | 29° |
| 2026-05-07 10:20 | 26.32743 | 122.40659 | 34926 ft | 494 kts | 30° |
| 2026-05-07 10:21 | 26.38397 | 122.45097 | 34928 ft | 496 kts | 29° |
| 2026-05-07 10:21 | 26.44072 | 122.49558 | 34930 ft | 494 kts | 29° |
| 2026-05-07 10:22 | 26.49716 | 122.53997 | 34939 ft | 497 kts | 29° |
| 2026-05-07 10:22 | 26.55386 | 122.58464 | 34939 ft | 498 kts | 29° |
| 2026-05-07 10:23 | 26.61061 | 122.62940 | 34938 ft | 497 kts | 29° |
| 2026-05-07 10:23 | 26.66702 | 122.67395 | 34924 ft | 496 kts | 30° |
| 2026-05-07 10:24 | 26.72442 | 122.71928 | 35521 ft | 506 kts | 29° |
| 2026-05-07 10:24 | 26.75246 | 122.74150 | 36502 ft | 497 kts | 28° |
| 2026-05-07 10:24 | 26.78095 | 122.76406 | 36909 ft | 496 kts | 28° |
| 2026-05-07 10:25 | 26.83721 | 122.80863 | 36923 ft | 490 kts | 28° |
| 2026-05-07 10:25 | 26.89311 | 122.85294 | 36926 ft | 495 kts | 28° |
| 2026-05-07 10:26 | 26.94946 | 122.89768 | 36925 ft | 494 kts | 28° |
| 2026-05-07 10:26 | 27.00533 | 122.94209 | 36924 ft | 496 kts | 28° |
| 2026-05-07 10:27 | 27.06157 | 122.98687 | 36927 ft | 493 kts | 28° |
| 2026-05-07 10:27 | 27.11744 | 123.03145 | 36936 ft | 497 kts | 28° |
| 2026-05-07 10:28 | 27.17384 | 123.07661 | 36937 ft | 494 kts | 28° |
| 2026-05-07 10:28 | 27.22977 | 123.12141 | 36934 ft | 498 kts | 28° |
| 2026-05-07 10:29 | 27.28561 | 123.16625 | 36928 ft | 492 kts | 28° |
| 2026-05-07 10:29 | 27.34169 | 123.21128 | 36927 ft | 496 kts | 28° |
| 2026-05-07 10:30 | 27.42643 | 123.27947 | 36935 ft | 496 kts | 28° |
| 2026-05-07 10:30 | 27.48231 | 123.32450 | 36941 ft | 498 kts | 28° |
| 2026-05-07 10:31 | 27.53875 | 123.37004 | 36938 ft | 496 kts | 28° |
| 2026-05-07 10:31 | 27.59546 | 123.41585 | 36939 ft | 497 kts | 28° |
| 2026-05-07 10:32 | 27.65165 | 123.46131 | 36947 ft | 499 kts | 28° |
| 2026-05-07 10:32 | 27.70849 | 123.50734 | 36951 ft | 502 kts | 28° |
| 2026-05-07 10:33 | 27.76468 | 123.55296 | 36954 ft | 497 kts | 28° |
| 2026-05-07 10:33 | 27.82111 | 123.59876 | 36946 ft | 500 kts | 28° |
| 2026-05-07 10:34 | 27.87740 | 123.64455 | 36953 ft | 498 kts | 28° |
| 2026-05-07 10:34 | 27.93422 | 123.69080 | 36941 ft | 504 kts | 29° |
| 2026-05-07 10:35 | 27.99117 | 123.73695 | 36944 ft | 504 kts | 29° |
| 2026-05-07 10:35 | 28.04829 | 123.78320 | 36942 ft | 502 kts | 28° |
| 2026-05-07 10:36 | 28.10474 | 123.82897 | 36945 ft | 503 kts | 28° |
| 2026-05-07 10:36 | 28.16203 | 123.87547 | 36949 ft | 504 kts | 28° |
| 2026-05-07 10:37 | 28.21892 | 123.92175 | 36949 ft | 502 kts | 28° |
| 2026-05-07 10:37 | 28.27617 | 123.96833 | 36953 ft | 508 kts | 28° |
| 2026-05-07 10:38 | 28.32923 | 124.02263 | 36939 ft | 517 kts | 45° |
| 2026-05-07 10:38 | 28.37300 | 124.08815 | 36957 ft | 525 kts | 47° |
| 2026-05-07 10:39 | 28.41642 | 124.15463 | 36953 ft | 522 kts | 47° |
| 2026-05-07 10:39 | 28.46009 | 124.22154 | 36959 ft | 525 kts | 47° |
| 2026-05-07 10:40 | 28.50386 | 124.28869 | 36959 ft | 525 kts | 47° |
| 2026-05-07 10:40 | 28.54698 | 124.35492 | 36959 ft | 525 kts | 47° |
| 2026-05-07 10:41 | 28.59045 | 124.42178 | 36950 ft | 525 kts | 47° |
| 2026-05-07 10:41 | 28.63375 | 124.48848 | 36950 ft | 523 kts | 47° |
| 2026-05-07 10:42 | 28.67692 | 124.55508 | 36962 ft | 525 kts | 47° |
| 2026-05-07 10:42 | 28.72002 | 124.62168 | 36960 ft | 522 kts | 47° |
| 2026-05-07 10:43 | 28.76842 | 124.68261 | 36948 ft | 513 kts | 32° |
| 2026-05-07 10:43 | 28.79682 | 124.70577 | 36946 ft | 501 kts | 24° |
| 2026-05-07 10:43 | 28.82777 | 124.72394 | 36953 ft | 487 kts | 14° |
| 2026-05-07 10:44 | 28.89124 | 124.75028 | 36955 ft | 485 kts | 11° |
| 2026-05-07 10:44 | 28.95524 | 124.77583 | 36953 ft | 486 kts | 11° |
| 2026-05-07 10:45 | 29.01915 | 124.80135 | 36957 ft | 485 kts | 12° |
| 2026-05-07 10:45 | 29.08305 | 124.82687 | 36957 ft | 487 kts | 11° |
| 2026-05-07 10:46 | 29.14667 | 124.85230 | 36970 ft | 490 kts | 12° |
| 2026-05-07 10:46 | 29.21082 | 124.87801 | 36969 ft | 485 kts | 11° |
| 2026-05-07 10:47 | 29.27511 | 124.90376 | 36970 ft | 491 kts | 11° |
| 2026-05-07 10:47 | 29.33894 | 124.92941 | 36967 ft | 486 kts | 11° |
| 2026-05-07 10:48 | 29.40361 | 124.95537 | 36968 ft | 489 kts | 11° |
| 2026-05-07 10:48 | 29.46777 | 124.98120 | 36968 ft | 489 kts | 11° |
| 2026-05-07 10:49 | 29.53215 | 125.00716 | 36968 ft | 487 kts | 11° |
| 2026-05-07 10:49 | 29.59633 | 125.03303 | 36962 ft | 492 kts | 11° |
| 2026-05-07 10:50 | 29.66117 | 125.05925 | 36965 ft | 488 kts | 11° |
| 2026-05-07 10:50 | 29.72512 | 125.08513 | 36969 ft | 489 kts | 11° |
| 2026-05-07 10:51 | 29.79024 | 125.11150 | 36966 ft | 491 kts | 11° |
| 2026-05-07 10:51 | 29.85453 | 125.13761 | 36970 ft | 488 kts | 11° |
| 2026-05-07 10:52 | 29.91925 | 125.16387 | 36965 ft | 491 kts | 11° |
| 2026-05-07 10:52 | 29.98371 | 125.19009 | 36967 ft | 497 kts | 11° |
| 2026-05-07 10:53 | 30.04845 | 125.21653 | 36962 ft | 492 kts | 11° |
| 2026-05-07 10:53 | 30.11349 | 125.24313 | 36959 ft | 494 kts | 11° |
| 2026-05-07 10:54 | 30.17728 | 125.26930 | 36961 ft | 487 kts | 11° |
| 2026-05-07 10:54 | 30.24230 | 125.29593 | 36960 ft | 497 kts | 11° |
| 2026-05-07 10:55 | 30.30703 | 125.32255 | 36956 ft | 493 kts | 11° |
| 2026-05-07 10:55 | 30.37220 | 125.34936 | 36956 ft | 493 kts | 11° |
| 2026-05-07 10:56 | 30.43707 | 125.37608 | 36956 ft | 495 kts | 11° |
| 2026-05-07 10:56 | 30.50235 | 125.40300 | 36960 ft | 498 kts | 11° |
| 2026-05-07 10:57 | 30.56741 | 125.42990 | 36959 ft | 496 kts | 11° |
| 2026-05-07 10:57 | 30.63258 | 125.45686 | 36965 ft | 496 kts | 11° |
| 2026-05-07 10:58 | 30.69756 | 125.48379 | 36958 ft | 495 kts | 11° |
| 2026-05-07 10:58 | 30.76238 | 125.51070 | 36961 ft | 494 kts | 11° |
| 2026-05-07 10:59 | 30.82778 | 125.53784 | 36959 ft | 498 kts | 11° |
| 2026-05-07 10:59 | 30.89258 | 125.56483 | 36963 ft | 498 kts | 11° |
| 2026-05-07 11:00 | 30.95808 | 125.59212 | 36965 ft | 499 kts | 12° |
| 2026-05-07 11:00 | 31.02357 | 125.61945 | 36963 ft | 499 kts | 12° |
| 2026-05-07 11:01 | 31.08891 | 125.64677 | 36964 ft | 497 kts | 11° |
| 2026-05-07 11:01 | 31.15425 | 125.67411 | 36959 ft | 499 kts | 12° |
| 2026-05-07 11:02 | 31.21956 | 125.70148 | 36952 ft | 500 kts | 12° |
| 2026-05-07 11:02 | 31.28558 | 125.72920 | 36961 ft | 500 kts | 12° |
| 2026-05-07 11:03 | 31.35120 | 125.75679 | 36962 ft | 501 kts | 12° |
| 2026-05-07 11:03 | 31.41656 | 125.78432 | 36964 ft | 499 kts | 12° |
| 2026-05-07 11:04 | 31.48209 | 125.81194 | 36968 ft | 502 kts | 12° |
| 2026-05-07 11:04 | 31.54768 | 125.83965 | 36980 ft | 501 kts | 12° |
| 2026-05-07 11:05 | 31.61357 | 125.86748 | 36969 ft | 500 kts | 12° |
| 2026-05-07 11:05 | 31.67924 | 125.89506 | 36976 ft | 501 kts | 12° |
| 2026-05-07 11:06 | 31.74483 | 125.92266 | 36970 ft | 502 kts | 12° |
| 2026-05-07 11:06 | 31.81034 | 125.95028 | 36969 ft | 499 kts | 12° |
| 2026-05-07 11:07 | 31.87588 | 125.97795 | 36979 ft | 499 kts | 12° |
| 2026-05-07 11:07 | 31.94155 | 126.00573 | 36970 ft | 500 kts | 12° |
| 2026-05-07 11:08 | 32.00717 | 126.03352 | 36966 ft | 501 kts | 12° |
| 2026-05-07 11:08 | 32.07289 | 126.06140 | 36974 ft | 501 kts | 12° |
| 2026-05-07 11:09 | 32.13872 | 126.08928 | 36982 ft | 500 kts | 12° |
| 2026-05-07 11:09 | 32.20407 | 126.11700 | 36979 ft | 499 kts | 12° |
| 2026-05-07 11:10 | 32.26990 | 126.14494 | 36972 ft | 501 kts | 12° |
| 2026-05-07 11:10 | 32.33545 | 126.17283 | 36979 ft | 501 kts | 13° |
| 2026-05-07 11:11 | 32.40139 | 126.20092 | 36974 ft | 501 kts | 13° |
| 2026-05-07 11:11 | 32.46694 | 126.22889 | 36974 ft | 503 kts | 13° |
| 2026-05-07 11:12 | 32.53241 | 126.25687 | 36966 ft | 501 kts | 13° |
| 2026-05-07 11:12 | 32.59840 | 126.28515 | 36969 ft | 503 kts | 13° |
| 2026-05-07 11:13 | 32.66413 | 126.31337 | 36965 ft | 504 kts | 13° |
| 2026-05-07 11:13 | 32.73020 | 126.34178 | 36957 ft | 502 kts | 13° |
| 2026-05-07 11:14 | 32.79610 | 126.37016 | 36968 ft | 505 kts | 13° |
| 2026-05-07 11:14 | 32.86163 | 126.39843 | 36962 ft | 505 kts | 13° |
| 2026-05-07 11:15 | 32.92779 | 126.42703 | 36958 ft | 503 kts | 13° |
| 2026-05-07 11:15 | 32.99397 | 126.45567 | 36964 ft | 503 kts | 13° |
| 2026-05-07 11:16 | 33.06045 | 126.48430 | 36960 ft | 503 kts | 13° |
| 2026-05-07 11:16 | 33.12620 | 126.51256 | 36960 ft | 505 kts | 13° |
| 2026-05-07 11:17 | 33.19214 | 126.54095 | 36956 ft | 505 kts | 13° |
| 2026-05-07 11:17 | 33.25822 | 126.56945 | 36965 ft | 507 kts | 13° |
| 2026-05-07 11:18 | 33.32495 | 126.59830 | 36959 ft | 502 kts | 13° |
| 2026-05-07 11:18 | 33.39133 | 126.62335 | 36953 ft | 499 kts | 3° |
| 2026-05-07 11:19 | 33.45962 | 126.63236 | 36971 ft | 490 kts | 357° |
| 2026-05-07 11:19 | 33.52773 | 126.63944 | 36967 ft | 493 kts | 357° |
| 2026-05-07 11:20 | 33.59595 | 126.64662 | 36957 ft | 489 kts | 357° |
| 2026-05-07 11:20 | 33.66481 | 126.65388 | 36940 ft | 495 kts | 358° |
| 2026-05-07 11:21 | 33.73302 | 126.66115 | 36935 ft | 492 kts | 358° |
| 2026-05-07 11:21 | 33.80169 | 126.66846 | 36939 ft | 494 kts | 358° |
| 2026-05-07 11:22 | 33.87001 | 126.67575 | 36942 ft | 493 kts | 357° |
| 2026-05-07 11:22 | 33.93905 | 126.68314 | 36941 ft | 494 kts | 357° |
| 2026-05-07 11:23 | 34.00758 | 126.69048 | 36936 ft | 497 kts | 357° |
| 2026-05-07 11:23 | 34.07689 | 126.69794 | 36938 ft | 494 kts | 357° |
| 2026-05-07 11:24 | 34.14544 | 126.70531 | 36939 ft | 498 kts | 357° |
| 2026-05-07 11:24 | 34.21461 | 126.71278 | 36934 ft | 495 kts | 357° |
| 2026-05-07 11:25 | 34.28368 | 126.72021 | 36932 ft | 496 kts | 357° |
| 2026-05-07 11:25 | 34.35226 | 126.72765 | 36948 ft | 496 kts | 357° |
| 2026-05-07 11:26 | 34.42131 | 126.73513 | 36944 ft | 496 kts | 357° |
| 2026-05-07 11:26 | 34.49073 | 126.74264 | 36945 ft | 500 kts | 357° |
| 2026-05-07 11:27 | 34.56014 | 126.75021 | 36950 ft | 498 kts | 357° |
| 2026-05-07 11:27 | 34.62914 | 126.75772 | 36948 ft | 499 kts | 356° |
| 2026-05-07 11:28 | 34.69899 | 126.76533 | 36949 ft | 500 kts | 357° |
| 2026-05-07 11:28 | 34.76835 | 126.77293 | 36954 ft | 498 kts | 356° |
| 2026-05-07 11:29 | 34.83775 | 126.78050 | 36954 ft | 502 kts | 356° |
| 2026-05-07 11:29 | 34.90744 | 126.78816 | 36954 ft | 498 kts | 356° |
| 2026-05-07 11:30 | 34.97686 | 126.79577 | 36955 ft | 502 kts | 356° |
| 2026-05-07 11:30 | 35.04616 | 126.80340 | 36956 ft | 502 kts | 356° |
| 2026-05-07 11:31 | 35.11543 | 126.81103 | 36949 ft | 503 kts | 356° |
| 2026-05-07 11:31 | 35.18600 | 126.81875 | 36952 ft | 501 kts | 356° |
| 2026-05-07 11:32 | 35.28987 | 126.83009 | 36452 ft | 490 kts | 356° |
| 2026-05-07 11:32 | 35.32395 | 126.83379 | 35493 ft | 493 kts | 356° |
| 2026-05-07 11:33 | 35.35768 | 126.83746 | 34972 ft | 488 kts | 356° |
| 2026-05-07 11:33 | 35.42679 | 126.84492 | 34952 ft | 503 kts | 356° |
| 2026-05-07 11:34 | 35.49596 | 126.85253 | 34952 ft | 497 kts | 356° |
| 2026-05-07 11:34 | 35.56513 | 126.86011 | 34952 ft | 500 kts | 356° |
| 2026-05-07 11:35 | 35.63451 | 126.86774 | 34946 ft | 501 kts | 356° |
| 2026-05-07 11:35 | 35.70442 | 126.87545 | 34940 ft | 502 kts | 355° |
| 2026-05-07 11:36 | 35.77404 | 126.88316 | 34945 ft | 502 kts | 355° |
| 2026-05-07 11:36 | 35.84383 | 126.89088 | 34940 ft | 504 kts | 355° |
| 2026-05-07 11:37 | 35.91353 | 126.89863 | 34941 ft | 501 kts | 355° |
| 2026-05-07 11:37 | 35.98324 | 126.90636 | 34941 ft | 502 kts | 355° |
| 2026-05-07 11:38 | 36.05275 | 126.91410 | 34935 ft | 501 kts | 355° |
| 2026-05-07 11:38 | 36.12240 | 126.92184 | 34929 ft | 503 kts | 355° |
| 2026-05-07 11:39 | 36.19257 | 126.92968 | 34928 ft | 504 kts | 355° |
| 2026-05-07 11:39 | 36.26302 | 126.93755 | 34930 ft | 504 kts | 355° |
| 2026-05-07 11:40 | 36.33232 | 126.94537 | 34578 ft | 496 kts | 354° |
| 2026-05-07 11:40 | 36.36705 | 126.94926 | 33381 ft | 503 kts | 354° |
| 2026-05-07 11:40 | 36.40196 | 126.95310 | 32173 ft | 511 kts | 354° |
| 2026-05-07 11:40 | 36.43741 | 126.95706 | 31177 ft | 514 kts | 355° |
| 2026-05-07 11:41 | 36.47295 | 126.96107 | 30387 ft | 512 kts | 355° |
| 2026-05-07 11:41 | 36.50825 | 126.96512 | 29918 ft | 503 kts | 354° |
| 2026-05-07 11:41 | 36.54272 | 126.96907 | 29377 ft | 495 kts | 354° |
| 2026-05-07 11:41 | 36.57677 | 126.97299 | 28802 ft | 479 kts | 354° |
| 2026-05-07 11:42 | 36.60974 | 126.97671 | 28400 ft | 485 kts | 354° |
| 2026-05-07 11:42 | 36.64415 | 126.98041 | 27895 ft | 504 kts | 355° |
| 2026-05-07 11:42 | 36.67903 | 126.98432 | 27275 ft | 501 kts | 354° |
| 2026-05-07 11:42 | 36.71319 | 126.98476 | 26665 ft | 483 kts | 345° |
| 2026-05-07 11:43 | 36.74586 | 126.97904 | 26048 ft | 465 kts | 336° |
| 2026-05-07 11:43 | 36.77594 | 126.96790 | 25444 ft | 448 kts | 328° |
| 2026-05-07 11:43 | 36.80484 | 126.95365 | 24844 ft | 441 kts | 327° |
| 2026-05-07 11:43 | 36.83291 | 126.93944 | 24241 ft | 438 kts | 328° |
| 2026-05-07 11:44 | 36.86242 | 126.92857 | 23658 ft | 448 kts | 338° |
| 2026-05-07 11:44 | 36.89355 | 126.92395 | 23076 ft | 458 kts | 348° |
| 2026-05-07 11:44 | 36.92567 | 126.92580 | 22491 ft | 467 kts | 359° |
| 2026-05-07 11:44 | 36.95806 | 126.93385 | 21918 ft | 469 kts | 4° |
| 2026-05-07 11:45 | 36.98987 | 126.94151 | 21359 ft | 463 kts | 2° |
| 2026-05-07 11:45 | 37.02185 | 126.94874 | 20779 ft | 459 kts | 2° |
| 2026-05-07 11:45 | 37.05317 | 126.95578 | 20209 ft | 456 kts | 2° |
| 2026-05-07 11:45 | 37.08398 | 126.96207 | 19639 ft | 449 kts | 358° |
| 2026-05-07 11:46 | 37.11497 | 126.96369 | 19055 ft | 436 kts | 349° |
| 2026-05-07 11:46 | 37.14431 | 126.95935 | 18471 ft | 424 kts | 340° |
| 2026-05-07 11:46 | 37.17254 | 126.95030 | 17876 ft | 414 kts | 334° |
| 2026-05-07 11:46 | 37.19944 | 126.93821 | 17284 ft | 407 kts | 329° |
| 2026-05-07 11:47 | 37.22544 | 126.92467 | 16679 ft | 402 kts | 328° |
| 2026-05-07 11:47 | 37.25036 | 126.91030 | 16127 ft | 395 kts | 326° |
| 2026-05-07 11:47 | 37.27358 | 126.89314 | 15930 ft | 371 kts | 315° |
| 2026-05-07 11:47 | 37.29314 | 126.87379 | 15912 ft | 349 kts | 312° |
| 2026-05-07 11:48 | 37.31139 | 126.85500 | 15909 ft | 331 kts | 311° |
| 2026-05-07 11:48 | 37.32835 | 126.83660 | 15912 ft | 312 kts | 309° |
| 2026-05-07 11:48 | 37.34374 | 126.81875 | 15919 ft | 294 kts | 306° |
| 2026-05-07 11:48 | 37.35715 | 126.80045 | 15916 ft | 272 kts | 299° |
| 2026-05-07 11:49 | 37.36799 | 126.78183 | 15691 ft | 261 kts | 294° |
| 2026-05-07 11:49 | 37.37686 | 126.76231 | 15333 ft | 256 kts | 288° |
| 2026-05-07 11:49 | 37.38369 | 126.74171 | 14878 ft | 255 kts | 282° |
| 2026-05-07 11:49 | 37.38794 | 126.72034 | 14397 ft | 254 kts | 275° |
| 2026-05-07 11:50 | 37.38963 | 126.69846 | 13914 ft | 255 kts | 269° |
| 2026-05-07 11:50 | 37.38869 | 126.67609 | 13422 ft | 257 kts | 262° |
| 2026-05-07 11:50 | 37.38508 | 126.65413 | 12931 ft | 260 kts | 254° |
| 2026-05-07 11:50 | 37.37882 | 126.63284 | 12434 ft | 263 kts | 247° |
| 2026-05-07 11:51 | 37.36981 | 126.61252 | 11930 ft | 267 kts | 239° |
| 2026-05-07 11:51 | 37.35837 | 126.59412 | 11432 ft | 272 kts | 231° |
| 2026-05-07 11:51 | 37.34448 | 126.57783 | 10937 ft | 278 kts | 223° |
| 2026-05-07 11:51 | 37.32816 | 126.56411 | 10433 ft | 284 kts | 214° |
| 2026-05-07 11:52 | 37.30996 | 126.55376 | 9932 ft | 290 kts | 205° |
| 2026-05-07 11:52 | 37.29018 | 126.54723 | 9429 ft | 297 kts | 195° |
| 2026-05-07 11:52 | 37.26953 | 126.54496 | 8862 ft | 300 kts | 185° |
| 2026-05-07 11:52 | 37.24898 | 126.54723 | 8339 ft | 297 kts | 174° |
| 2026-05-07 11:53 | 37.22924 | 126.55389 | 7839 ft | 295 kts | 163° |
| 2026-05-07 11:53 | 37.21077 | 126.56469 | 7335 ft | 293 kts | 153° |
| 2026-05-07 11:53 | 37.19415 | 126.57916 | 6829 ft | 290 kts | 142° |
| 2026-05-07 11:53 | 37.17979 | 126.59689 | 6320 ft | 288 kts | 131° |
| 2026-05-07 11:54 | 37.16807 | 126.61729 | 5803 ft | 286 kts | 121° |
| 2026-05-07 11:54 | 37.16011 | 126.63971 | 5279 ft | 283 kts | 103° |
| 2026-05-07 11:54 | 37.15631 | 126.66355 | 4799 ft | 281 kts | 99° |
| 2026-05-07 11:54 | 37.15288 | 126.68768 | 4297 ft | 279 kts | 99° |
| 2026-05-07 11:55 | 37.14956 | 126.71129 | 3793 ft | 277 kts | 99° |
| 2026-05-07 11:55 | 37.14624 | 126.73485 | 3287 ft | 275 kts | 99° |
| 2026-05-07 11:55 | 37.14296 | 126.75815 | 2986 ft | 264 kts | 98° |
| 2026-05-07 11:55 | 37.13983 | 126.78022 | 2975 ft | 248 kts | 98° |
| 2026-05-07 11:56 | 37.13683 | 126.80113 | 2951 ft | 241 kts | 101° |
| 2026-05-07 11:56 | 37.13045 | 126.82011 | 2946 ft | 238 kts | 126° |
| 2026-05-07 11:56 | 37.11861 | 126.83432 | 2943 ft | 235 kts | 152° |
| 2026-05-07 11:56 | 37.10327 | 126.84146 | 2943 ft | 232 kts | 176° |
| 2026-05-07 11:57 | 37.08761 | 126.84058 | 2943 ft | 223 kts | 200° |
| 2026-05-07 11:57 | 37.07380 | 126.83263 | 2943 ft | 218 kts | 221° |
| 2026-05-07 11:57 | 37.06350 | 126.81915 | 2945 ft | 211 kts | 241° |
| 2026-05-07 11:57 | 37.05796 | 126.80260 | 2948 ft | 206 kts | 261° |
| 2026-05-07 11:58 | 37.05736 | 126.78494 | 2950 ft | 203 kts | 279° |
| 2026-05-07 11:58 | 37.06170 | 126.76808 | 2950 ft | 200 kts | 298° |
| 2026-05-07 11:58 | 37.07006 | 126.75449 | 2944 ft | 201 kts | 316° |
| 2026-05-07 11:58 | 37.08189 | 126.74500 | 2944 ft | 202 kts | 335° |
| 2026-05-07 11:59 | 37.09560 | 126.74102 | 2825 ft | 206 kts | 353° |
| 2026-05-07 11:59 | 37.11009 | 126.74232 | 2567 ft | 205 kts | 359° |
| 2026-05-07 11:59 | 37.12362 | 126.73895 | 2299 ft | 196 kts | 330° |
| 2026-05-07 11:59 | 37.13409 | 126.72845 | 2052 ft | 192 kts | 315° |
| 2026-05-07 12:00 | 37.14359 | 126.71675 | 1793 ft | 191 kts | 314° |
| 2026-05-07 12:00 | 37.15290 | 126.70523 | 1656 ft | 185 kts | 314° |
| 2026-05-07 12:00 | 37.16221 | 126.69369 | 1640 ft | 188 kts | 314° |
| 2026-05-07 12:00 | 37.17136 | 126.68233 | 1611 ft | 187 kts | 314° |
| 2026-05-07 12:01 | 37.18063 | 126.67082 | 1558 ft | 186 kts | 314° |
| 2026-05-07 12:01 | 37.19044 | 126.66000 | 1553 ft | 184 kts | 322° |
| 2026-05-07 12:01 | 37.20078 | 126.65088 | 1550 ft | 179 kts | 323° |
| 2026-05-07 12:01 | 37.21076 | 126.64210 | 1548 ft | 176 kts | 323° |
| 2026-05-07 12:02 | 37.22081 | 126.63325 | 1552 ft | 176 kts | 323° |
| 2026-05-07 12:02 | 37.23080 | 126.62444 | 1551 ft | 176 kts | 323° |
| 2026-05-07 12:02 | 37.24086 | 126.61554 | 1542 ft | 176 kts | 322° |
| 2026-05-07 12:02 | 37.25093 | 126.60664 | 1551 ft | 174 kts | 323° |
| 2026-05-07 12:03 | 37.26024 | 126.59842 | 1543 ft | 159 kts | 322° |
| 2026-05-07 12:03 | 37.26909 | 126.59001 | 1558 ft | 157 kts | 320° |
| 2026-05-07 12:03 | 37.27792 | 126.58179 | 1558 ft | 156 kts | 322° |
| 2026-05-07 12:03 | 37.28673 | 126.57399 | 1562 ft | 156 kts | 322° |
| 2026-05-07 12:04 | 37.29574 | 126.56613 | 1563 ft | 155 kts | 322° |
| 2026-05-07 12:04 | 37.30470 | 126.55830 | 1566 ft | 157 kts | 322° |
| 2026-05-07 12:04 | 37.31356 | 126.55052 | 1564 ft | 156 kts | 322° |
| 2026-05-07 12:04 | 37.32253 | 126.54263 | 1559 ft | 156 kts | 322° |
| 2026-05-07 12:05 | 37.33142 | 126.53479 | 1568 ft | 155 kts | 323° |
| 2026-05-07 12:05 | 37.34020 | 126.52706 | 1561 ft | 154 kts | 323° |
| 2026-05-07 12:05 | 37.34901 | 126.51929 | 1560 ft | 155 kts | 323° |
| 2026-05-07 12:05 | 37.35793 | 126.51141 | 1560 ft | 156 kts | 322° |
| 2026-05-07 12:06 | 37.36686 | 126.50353 | 1562 ft | 157 kts | 322° |
| 2026-05-07 12:06 | 37.37562 | 126.49580 | 1562 ft | 154 kts | 322° |
| 2026-05-07 12:06 | 37.38457 | 126.48789 | 1416 ft | 153 kts | 322° |
| 2026-05-07 12:06 | 37.39296 | 126.48049 | 1212 ft | 139 kts | 322° |
| 2026-05-07 12:07 | 37.40054 | 126.47377 | 1042 ft | 132 kts | 322° |
| 2026-05-07 12:07 | 37.40802 | 126.46716 | 870 ft | 131 kts | 322° |
| 2026-05-07 12:07 | 37.41545 | 126.46058 | 690 ft | 131 kts | 322° |
| 2026-05-07 12:07 | 37.42302 | 126.45387 | 511 ft | 133 kts | 322° |
| 2026-05-07 12:08 | 37.43057 | 126.44720 | 329 ft | 134 kts | 322° |
| 2026-05-07 12:08 | 37.43835 | 126.44031 | 144 ft | 135 kts | 322° |
| 2026-05-07 12:08 | 37.44580 | 126.43356 | 35 ft | 123 kts | 324° |
| 2026-05-07 12:08 | 37.45168 | 126.42864 | 35 ft | 78 kts | 324° |
| 2026-05-07 12:09 | 37.45477 | 126.42591 | 35 ft | 22 kts | 324° |
| 2026-05-07 12:09 | 37.45599 | 126.42487 | 35 ft | 19 kts | 333° |
| 2026-05-07 12:09 | 37.45726 | 126.42449 | 35 ft | 18 kts | 351° |
| 2026-05-07 12:09 | 37.45852 | 126.42437 | 35 ft | 17 kts | 355° |
| 2026-05-07 12:10 | 37.45968 | 126.42405 | 35 ft | 16 kts | 339° |
| 2026-05-07 12:10 | 37.46070 | 126.42404 | 35 ft | 15 kts | 50° |
| 2026-05-07 12:10 | 37.46129 | 126.42515 | 35 ft | 15 kts | 48° |
| 2026-05-07 12:10 | 37.46196 | 126.42616 | 35 ft | 14 kts | 52° |
| 2026-05-07 12:11 | 37.46239 | 126.42731 | 35 ft | 13 kts | 91° |
| 2026-05-07 12:11 | 37.46177 | 126.42802 | 35 ft | 13 kts | 147° |
| 2026-05-07 12:11 | 37.46091 | 126.42873 | 35 ft | 16 kts | 147° |
| 2026-05-07 12:11 | 37.45986 | 126.42966 | 35 ft | 19 kts | 144° |
| 2026-05-07 12:12 | 37.45867 | 126.43074 | 35 ft | 22 kts | 144° |
| 2026-05-07 12:12 | 37.45731 | 126.43195 | 35 ft | 24 kts | 146° |
| 2026-05-07 12:12 | 37.45588 | 126.43317 | 35 ft | 25 kts | 146° |
| 2026-05-07 12:12 | 37.45437 | 126.43443 | 35 ft | 26 kts | 147° |
| 2026-05-07 12:13 | 37.45301 | 126.43572 | 35 ft | 22 kts | 142° |
| 2026-05-07 12:13 | 37.45181 | 126.43686 | 35 ft | 21 kts | 144° |
| 2026-05-07 12:13 | 37.45061 | 126.43791 | 35 ft | 20 kts | 146° |
| 2026-05-07 12:13 | 37.44946 | 126.43891 | 35 ft | 19 kts | 146° |
| 2026-05-07 12:14 | 37.44835 | 126.43987 | 35 ft | 18 kts | 145° |
| 2026-05-07 12:14 | 37.44732 | 126.44083 | 35 ft | 18 kts | 143° |
| 2026-05-07 12:14 | 37.44631 | 126.44177 | 35 ft | 17 kts | 143° |
| 2026-05-07 12:14 | 37.44556 | 126.44251 | 35 ft | 11 kts | 121° |
| 2026-05-07 12:15 | 37.44569 | 126.44347 | 35 ft | 12 kts | 57° |
| 2026-05-07 12:15 | 37.44617 | 126.44436 | 35 ft | 12 kts | 56° |
| 2026-05-07 12:15 | 37.44665 | 126.44524 | 35 ft | 12 kts | 55° |
| 2026-05-07 12:15 | 37.44722 | 126.44588 | 35 ft | 8 kts | 23° |
| 2026-05-07 12:16 | 37.44766 | 126.44614 | 35 ft | 6 kts | 50° |
| 2026-05-07 12:16 | 37.44763 | 126.44660 | 35 ft | 6 kts | 111° |
| 2026-05-07 12:16 | 37.44750 | 126.44707 | 35 ft | 4 kts | 110° |
| 2026-05-07 12:16 | 37.44745 | 126.44726 | 35 ft | 0 kts | 109° |